createdAt,value
2022-12-06T15:37:39.085Z,84.61303711
2022-12-06T15:38:16.934Z,84.82055664
2022-12-06T15:39:17.445Z,85.02807617
2022-12-06T15:40:18.501Z,85.2355957
2022-12-06T15:41:19.020Z,85.33935547
2022-12-06T15:42:19.627Z,85.2355957
2022-12-06T15:43:20.154Z,85.2355957
2022-12-06T15:44:20.724Z,85.33935547
2022-12-06T15:45:21.375Z,85.19897461
2022-12-06T15:46:22.053Z,85.09521484
2022-12-06T15:47:23.040Z,84.78393555
2022-12-06T15:48:23.549Z,84.68017578
2022-12-06T15:49:24.185Z,84.68017578
2022-12-06T15:50:25.614Z,84.78393555
2022-12-06T15:51:26.262Z,84.68017578
2022-12-06T15:52:26.944Z,84.88769531
2022-12-06T15:53:27.964Z,84.99145508
2022-12-06T15:54:59.271Z,84.68017578
2022-12-06T15:56:00.087Z,84.68017578
2022-12-06T15:57:00.714Z,84.68017578
2022-12-06T15:58:01.431Z,85.02807617
2022-12-06T15:59:02.037Z,85.13183594
2022-12-06T16:00:03.827Z,85.33935547
2022-12-06T16:01:04.433Z,85.40649414
2022-12-06T16:02:05.059Z,85.30273438
2022-12-06T16:03:05.716Z,85.09521484
2022-12-06T16:04:06.323Z,84.88769531
2022-12-06T16:05:06.941Z,84.68017578
2022-12-06T16:06:07.603Z,84.57641602
2022-12-06T16:07:08.150Z,84.68017578
2022-12-06T16:08:09.713Z,84.57641602
2022-12-06T16:09:10.258Z,84.47265625
2022-12-06T16:10:11.603Z,84.61303711
2022-12-06T16:11:12.821Z,84.82055664
2022-12-06T16:12:12.805Z,85.2355957
2022-12-06T16:13:14.233Z,85.546875
2022-12-06T16:14:14.653Z,85.65063477
2022-12-06T16:15:15.300Z,85.69335938
2022-12-06T16:16:16.081Z,86.00463867
2022-12-06T16:17:17.267Z,86.10839844
2022-12-06T16:18:17.974Z,86.31591797
2022-12-06T16:19:18.548Z,86.62719727
2022-12-06T16:20:20.075Z,86.66992188
2022-12-06T16:21:20.665Z,86.87744141
2022-12-06T16:22:21.357Z,87.08496094
2022-12-06T16:23:22.091Z,87.24975586
2022-12-06T16:24:22.844Z,86.93847656
2022-12-06T16:25:23.464Z,86.31591797
2022-12-06T16:26:24.076Z,86.10839844
2022-12-06T16:27:24.755Z,85.90087891
2022-12-06T16:28:25.364Z,86.00463867
2022-12-06T16:29:25.921Z,86.2121582
2022-12-06T16:30:27.568Z,86.5234375
2022-12-06T16:31:59.376Z,86.62719727
2022-12-06T16:33:04.336Z,86.62719727
2022-12-06T16:34:00.618Z,86.62719727
2022-12-06T16:35:01.596Z,86.5234375
2022-12-06T16:36:01.843Z,86.41967773
2022-12-06T16:37:02.411Z,86.00463867
2022-12-06T16:38:03.075Z,85.90087891
2022-12-06T16:39:03.890Z,85.90087891
2022-12-06T16:40:05.273Z,85.58959961
2022-12-06T16:41:05.846Z,85.38208008
2022-12-06T16:42:06.533Z,85.48583984
2022-12-06T16:43:07.202Z,85.38208008
2022-12-06T16:44:07.903Z,85.27832031
2022-12-06T16:45:08.439Z,85.06469727
2022-12-06T16:46:09.040Z,84.85717773
2022-12-06T16:47:09.643Z,84.75341797
2022-12-06T16:48:10.263Z,85.06469727
2022-12-06T16:49:44.278Z,85.31494141
2022-12-06T16:50:12.248Z,85.38208008
2022-12-06T16:51:12.822Z,85.16845703
2022-12-06T16:52:13.450Z,84.85717773
2022-12-06T16:53:14.106Z,84.6496582
2022-12-06T16:54:14.683Z,84.69238281
2022-12-06T16:55:15.298Z,84.79614258
2022-12-06T16:56:15.889Z,84.79614258
2022-12-06T16:57:16.508Z,84.79614258
2022-12-06T16:58:17.100Z,84.79614258
2022-12-06T16:59:17.958Z,85.00366211
2022-12-06T17:00:19.319Z,85.10742188
2022-12-06T17:01:20.098Z,85.10742188
2022-12-06T17:02:20.633Z,85.10742188
2022-12-06T17:03:21.231Z,85.21118164
2022-12-06T17:04:21.940Z,85.45532227
2022-12-06T17:05:22.726Z,85.66894531
2022-12-06T17:06:23.470Z,85.98022461
2022-12-06T17:07:24.634Z,86.04125977
2022-12-06T17:08:25.275Z,86.04125977
2022-12-06T17:09:25.943Z,86.14501953
2022-12-06T17:10:27.269Z,85.83374023
2022-12-06T17:11:58.137Z,85.83374023
2022-12-06T17:12:58.768Z,86.14501953
2022-12-06T17:13:59.383Z,86.04125977
2022-12-06T17:15:00.235Z,85.72998047
2022-12-06T17:16:00.701Z,85.72998047
2022-12-06T17:17:01.789Z,85.66894531
2022-12-06T17:18:02.465Z,85.45532227
2022-12-06T17:19:03.159Z,85.3515625
2022-12-06T17:20:03.849Z,85.55908203
2022-12-06T17:21:05.039Z,85.55908203
2022-12-06T17:22:05.716Z,85.3515625
2022-12-06T17:23:07.240Z,85.3515625
2022-12-06T17:24:07.871Z,85.55908203
2022-12-06T17:25:08.684Z,86.0168457
2022-12-06T17:26:09.271Z,86.43188477
2022-12-06T17:27:09.892Z,86.74926758
2022-12-06T17:28:10.488Z,87.06054688
2022-12-06T17:29:11.109Z,87.26806641
2022-12-06T17:30:12.439Z,87.43286133
2022-12-06T17:31:12.910Z,87.43286133
2022-12-06T17:32:13.444Z,87.32910156
2022-12-06T17:33:13.994Z,87.32910156
2022-12-06T17:34:14.649Z,87.12158203
2022-12-06T17:35:15.308Z,86.81030273
2022-12-06T17:36:17.646Z,86.56616211
2022-12-06T17:37:16.607Z,86.35253906
2022-12-06T17:38:17.271Z,86.35253906
2022-12-06T17:39:17.883Z,86.29150391
2022-12-06T17:40:19.299Z,86.39526367
2022-12-06T17:41:19.897Z,86.49902344
2022-12-06T17:42:20.494Z,86.49902344
2022-12-06T17:43:21.139Z,86.49902344
2022-12-06T17:44:21.821Z,86.49902344
2022-12-06T17:45:24.857Z,86.39526367
2022-12-06T17:46:23.544Z,86.29150391
2022-12-06T17:47:24.736Z,86.39526367
2022-12-06T17:48:25.481Z,86.39526367
2022-12-06T17:49:26.557Z,86.39526367
2022-12-06T17:50:58.183Z,86.39526367
2022-12-06T17:51:58.738Z,86.29150391
2022-12-06T17:52:59.418Z,86.08398438
2022-12-06T17:54:04.575Z,85.77270508
2022-12-06T17:55:01.311Z,85.45532227
2022-12-06T17:56:01.698Z,85.14404297
2022-12-06T17:57:02.352Z,85.0402832
2022-12-06T17:58:03.116Z,84.93652344
2022-12-06T17:59:03.836Z,84.62524414
2022-12-06T18:00:04.451Z,84.41772461
2022-12-06T18:01:05.697Z,84.31396484
2022-12-06T18:02:16.905Z,84.41772461
2022-12-06T18:03:07.141Z,84.72900391
2022-12-06T18:04:07.730Z,84.72900391
2022-12-06T18:05:08.364Z,84.72900391
2022-12-06T18:06:10.458Z,84.83276367
2022-12-06T18:07:10.248Z,84.93652344
2022-12-06T18:08:11.147Z,84.93652344
2022-12-06T18:09:11.689Z,84.93652344
2022-12-06T18:10:12.374Z,84.83276367
2022-12-06T18:11:13.651Z,84.62524414
2022-12-06T18:12:14.828Z,84.31396484
2022-12-06T18:13:15.506Z,84.21020508
2022-12-06T18:14:16.258Z,84.21020508
2022-12-06T18:15:16.784Z,84.66186523
2022-12-06T18:16:17.496Z,84.66186523
2022-12-06T18:17:18.115Z,84.66186523
2022-12-06T18:18:19.689Z,84.4543457
2022-12-06T18:19:20.425Z,84.55810547
2022-12-06T18:20:21.084Z,84.55810547
2022-12-06T18:21:22.839Z,84.35058594
2022-12-06T18:22:23.522Z,84.4543457
2022-12-06T18:23:24.339Z,84.35058594
2022-12-06T18:24:29.112Z,84.4543457
2022-12-06T18:25:26.115Z,84.55810547
2022-12-06T18:26:57.214Z,84.55810547
2022-12-06T18:27:57.671Z,84.62524414
2022-12-06T18:28:58.400Z,84.41772461
2022-12-06T18:29:59.652Z,84.21020508
2022-12-06T18:31:00.775Z,83.89892578
2022-12-06T18:32:01.741Z,84.00268555
2022-12-06T18:33:02.045Z,84.00268555
2022-12-06T18:34:02.655Z,84.00268555
2022-12-06T18:35:03.670Z,83.79516602
2022-12-06T18:36:04.191Z,83.79516602
2022-12-06T18:37:04.959Z,84.00268555
2022-12-06T18:38:05.588Z,83.89892578
2022-12-06T18:39:10.932Z,84.03930664
2022-12-06T18:40:06.758Z,84.24682617
2022-12-06T18:41:08.172Z,84.35058594
2022-12-06T18:42:09.851Z,84.4543457
2022-12-06T18:43:10.451Z,84.55810547
2022-12-06T18:44:11.213Z,84.66186523
2022-12-06T18:45:11.869Z,84.765625
2022-12-06T18:46:12.632Z,84.86938477
2022-12-06T18:47:13.227Z,84.97924805
2022-12-06T18:48:14.789Z,85.08300781
2022-12-06T18:49:15.505Z,85.18676758
2022-12-06T18:50:16.132Z,85.18676758
2022-12-06T18:51:17.727Z,84.86938477
2022-12-06T18:52:18.413Z,84.765625
2022-12-06T18:53:19.057Z,85.08300781
2022-12-06T18:54:19.638Z,85.39428711
2022-12-06T18:55:20.351Z,85.70556641
2022-12-06T18:56:20.964Z,85.80932617
2022-12-06T18:57:21.678Z,85.60180664
2022-12-06T18:58:22.411Z,85.60180664
2022-12-06T18:59:27.454Z,85.60180664
2022-12-06T19:00:23.732Z,85.60180664
2022-12-06T19:01:25.206Z,85.29052734
2022-12-06T19:02:56.456Z,84.86938477
2022-12-06T19:03:56.955Z,85.08300781
2022-12-06T19:04:57.748Z,85.18676758
2022-12-06T19:06:03.323Z,84.97924805
2022-12-06T19:06:59.023Z,84.86938477
2022-12-06T19:07:59.746Z,84.86938477
2022-12-06T19:09:00.390Z,84.62524414
2022-12-06T19:10:01.236Z,84.31396484
2022-12-06T19:11:02.300Z,84.21020508
2022-12-06T19:12:02.979Z,84.41772461
2022-12-06T19:13:05.838Z,84.10644531
2022-12-06T19:14:04.410Z,83.79516602
2022-12-06T19:15:05.072Z,84.00268555
2022-12-06T19:16:05.906Z,84.35058594
2022-12-06T19:17:06.692Z,84.55810547
2022-12-06T19:18:08.454Z,84.52148438
2022-12-06T19:19:14.219Z,84.41772461
2022-12-06T19:20:09.704Z,84.21020508
2022-12-06T19:21:11.264Z,84.10644531
2022-12-06T19:22:11.925Z,84.21020508
2022-12-06T19:23:12.695Z,84.03930664
2022-12-06T19:24:13.147Z,84.14306641
2022-12-06T19:25:13.928Z,84.24682617
2022-12-06T19:26:14.649Z,84.4543457
2022-12-06T19:27:18.528Z,84.35058594
2022-12-06T19:28:15.977Z,84.4543457
2022-12-06T19:29:16.710Z,84.35058594
2022-12-06T19:30:17.447Z,84.35058594
2022-12-06T19:31:18.947Z,84.60083008
2022-12-06T19:32:19.505Z,84.91210938
2022-12-06T19:33:20.117Z,85.22338867
2022-12-06T19:34:20.771Z,85.53466797
2022-12-06T19:35:21.342Z,86.05957031
2022-12-06T19:36:21.947Z,86.0168457
2022-12-06T19:37:22.899Z,85.80932617
2022-12-06T19:38:23.659Z,85.39428711
2022-12-06T19:39:24.393Z,85.08300781
2022-12-06T19:40:55.843Z,85.08300781
2022-12-06T19:41:57.021Z,85.08300781
2022-12-06T19:42:57.831Z,84.55810547
2022-12-06T19:43:58.558Z,84.24682617
2022-12-06T19:44:59.202Z,84.24682617
2022-12-06T19:46:00.031Z,84.14306641
2022-12-06T19:47:00.574Z,84.14306641
2022-12-06T19:48:01.879Z,84.03930664
2022-12-06T19:49:02.540Z,84.24682617
2022-12-06T19:50:03.509Z,84.4543457
2022-12-06T19:51:03.921Z,84.66186523
2022-12-06T19:52:05.127Z,84.66186523
2022-12-06T19:53:05.819Z,84.66186523
2022-12-06T19:54:06.705Z,84.55810547
2022-12-06T19:55:07.386Z,84.4543457
2022-12-06T19:56:08.248Z,84.35058594
2022-12-06T19:57:09.004Z,84.24682617
2022-12-06T19:58:09.644Z,84.4543457
2022-12-06T19:59:11.442Z,84.55810547
2022-12-06T20:00:12.119Z,84.66186523
2022-12-06T20:01:13.853Z,84.66186523
2022-12-06T20:02:14.531Z,84.55810547
2022-12-06T20:03:15.114Z,84.765625
2022-12-06T20:04:15.887Z,84.765625
2022-12-06T20:05:16.607Z,84.62524414
2022-12-06T20:06:18.359Z,84.4543457
2022-12-06T20:07:18.012Z,84.4543457
2022-12-06T20:08:18.680Z,84.55810547
2022-12-06T20:09:19.409Z,84.35058594
2022-12-06T20:10:20.122Z,84.55810547
2022-12-06T20:11:25.234Z,84.66186523
2022-12-06T20:12:22.669Z,84.55810547
2022-12-06T20:13:23.367Z,84.55810547
2022-12-06T20:14:24.040Z,84.765625
2022-12-06T20:15:55.715Z,84.72900391
2022-12-06T20:16:57.152Z,84.93652344
2022-12-06T20:17:57.815Z,85.14404297
2022-12-06T20:18:59.064Z,84.72900391
2022-12-06T20:20:00.207Z,84.62524414
2022-12-06T20:21:00.749Z,84.41772461
2022-12-06T20:22:02.175Z,84.41772461
2022-12-06T20:23:07.489Z,84.31396484
2022-12-06T20:24:03.743Z,84.72900391
2022-12-06T20:25:04.396Z,84.86938477
2022-12-06T20:26:05.005Z,85.08300781
2022-12-06T20:27:05.769Z,85.29052734
2022-12-06T20:28:11.861Z,85.29052734
2022-12-06T20:29:07.219Z,85.49804688
2022-12-06T20:30:07.791Z,85.29052734
2022-12-06T20:31:08.646Z,85.29052734
2022-12-06T20:32:10.229Z,85.3515625
2022-12-06T20:33:10.965Z,85.45532227
2022-12-06T20:34:14.816Z,85.0402832
2022-12-06T20:35:12.797Z,84.62524414
2022-12-06T20:36:13.385Z,84.52148438
2022-12-06T20:37:14.057Z,84.52148438
2022-12-06T20:38:14.819Z,84.55810547
2022-12-06T20:39:15.525Z,84.765625
2022-12-06T20:40:16.290Z,84.97924805
2022-12-06T20:41:16.742Z,85.08300781
2022-12-06T20:42:18.122Z,85.29052734
2022-12-06T20:43:18.766Z,85.49804688
2022-12-06T20:44:19.459Z,85.3515625
2022-12-06T20:45:20.171Z,85.0402832
2022-12-06T20:46:20.872Z,84.93652344
2022-12-06T20:47:21.458Z,84.93652344
2022-12-06T20:48:22.781Z,84.72900391
2022-12-06T20:49:23.635Z,84.41772461
2022-12-06T20:50:55.178Z,84.31396484
2022-12-06T20:51:56.310Z,84.31396484
2022-12-06T20:52:56.963Z,84.41772461
2022-12-06T20:53:57.716Z,84.62524414
2022-12-06T20:54:58.486Z,84.72900391
2022-12-06T20:55:59.347Z,84.83276367
2022-12-06T20:57:00.103Z,85.14404297
2022-12-06T20:58:00.867Z,85.14404297
2022-12-06T20:59:01.611Z,85.24780273
2022-12-06T21:00:07.244Z,85.24780273
2022-12-06T21:01:03.252Z,85.45532227
2022-12-06T21:02:04.346Z,85.55908203
2022-12-06T21:03:04.970Z,85.3515625
2022-12-06T21:04:05.595Z,85.0402832
2022-12-06T21:05:06.231Z,85.24780273
2022-12-06T21:06:06.834Z,85.3515625
2022-12-06T21:07:07.545Z,85.66894531
2022-12-06T21:08:08.274Z,85.66894531
2022-12-06T21:09:08.919Z,85.98022461
2022-12-06T21:10:09.729Z,85.98022461
2022-12-06T21:11:23.345Z,85.87646484
2022-12-06T21:12:11.744Z,85.87646484
2022-12-06T21:13:12.480Z,85.87646484
2022-12-06T21:14:13.121Z,85.77270508
2022-12-06T21:15:13.687Z,85.66894531
2022-12-06T21:16:14.464Z,85.55908203
2022-12-06T21:17:14.944Z,85.14404297
2022-12-06T21:18:18.977Z,85.24780273
2022-12-06T21:19:17.088Z,85.66894531
2022-12-06T21:20:17.644Z,85.77270508
2022-12-06T21:21:18.423Z,85.87646484
2022-12-06T21:22:19.525Z,85.87646484
2022-12-06T21:23:20.265Z,85.91308594
2022-12-06T21:24:20.981Z,85.91308594
2022-12-06T21:25:21.675Z,85.77270508
2022-12-06T21:26:22.327Z,85.45532227
2022-12-06T21:27:22.913Z,85.49804688
2022-12-06T21:28:23.994Z,85.60180664
2022-12-06T21:29:55.021Z,85.70556641
2022-12-06T21:30:55.769Z,85.91308594
2022-12-06T21:31:57.271Z,85.91308594
2022-12-06T21:32:57.827Z,85.66894531
2022-12-06T21:33:58.424Z,85.55908203
2022-12-06T21:34:59.019Z,85.66894531
2022-12-06T21:35:59.723Z,85.77270508
2022-12-06T21:37:01.295Z,85.77270508
2022-12-06T21:38:01.812Z,85.66894531
2022-12-06T21:39:02.402Z,85.60180664
2022-12-06T21:40:03.579Z,85.60180664
2022-12-06T21:41:03.746Z,85.60180664
2022-12-06T21:42:05.307Z,85.80932617
2022-12-06T21:43:05.960Z,86.12060547
2022-12-06T21:44:06.574Z,86.0168457
2022-12-06T21:45:07.142Z,85.91308594
2022-12-06T21:46:07.749Z,86.16333008
2022-12-06T21:47:08.371Z,86.16333008
2022-12-06T21:48:08.963Z,86.37084961
2022-12-06T21:49:10.257Z,86.57836914
2022-12-06T21:50:10.941Z,86.88964844
2022-12-06T21:51:11.546Z,86.9934082
2022-12-06T21:52:12.819Z,87.20092773
2022-12-06T21:53:13.466Z,87.09716797
2022-12-06T21:54:14.173Z,87.3046875
2022-12-06T21:55:14.871Z,87.51831055
2022-12-06T21:56:15.487Z,87.82958984
2022-12-06T21:57:16.764Z,87.82958984
2022-12-06T21:58:17.414Z,87.82958984
2022-12-06T21:59:18.015Z,87.82958984
2022-12-06T22:00:18.636Z,87.5793457
2022-12-06T22:01:19.293Z,87.37182617
2022-12-06T22:02:20.881Z,86.85302734
2022-12-06T22:03:23.410Z,86.328125
2022-12-06T22:04:22.032Z,86.328125
2022-12-06T22:05:22.525Z,86.328125
2022-12-06T22:06:23.547Z,86.43188477
2022-12-06T22:07:54.503Z,86.43188477
2022-12-06T22:08:55.188Z,86.43188477
2022-12-06T22:09:55.858Z,86.328125
2022-12-06T22:10:56.554Z,86.22436523
2022-12-06T22:11:57.764Z,86.12060547
2022-12-06T22:12:59.173Z,86.12060547
2022-12-06T22:13:59.753Z,85.80932617
2022-12-06T22:15:00.391Z,85.80932617
2022-12-06T22:16:01.137Z,85.70556641
2022-12-06T22:17:01.620Z,85.3515625
2022-12-06T22:18:02.331Z,85.0402832
2022-12-06T22:19:03.792Z,84.93652344
2022-12-06T22:20:04.656Z,84.83276367
2022-12-06T22:21:05.160Z,84.72900391
2022-12-06T22:22:06.738Z,84.41772461
2022-12-06T22:23:07.584Z,84.31396484
2022-12-06T22:24:08.145Z,84.31396484
2022-12-06T22:25:08.787Z,84.31396484
2022-12-06T22:26:09.484Z,84.41772461
2022-12-06T22:27:10.047Z,84.41772461
2022-12-06T22:28:10.760Z,84.31396484
2022-12-06T22:29:11.322Z,84.41772461
2022-12-06T22:30:11.953Z,84.41772461
2022-12-06T22:31:12.658Z,84.31396484
2022-12-06T22:32:13.774Z,84.10644531
2022-12-06T22:33:14.421Z,83.85620117
2022-12-06T22:34:15.003Z,83.85620117
2022-12-06T22:35:15.638Z,83.85620117
2022-12-06T22:36:16.227Z,84.00268555
2022-12-06T22:37:16.856Z,83.95996094
2022-12-06T22:38:17.498Z,83.95996094
2022-12-06T22:39:18.098Z,84.0637207
2022-12-06T22:40:18.691Z,84.0637207
2022-12-06T22:41:19.268Z,84.0637207
2022-12-06T22:42:20.736Z,83.85620117
2022-12-06T22:43:21.403Z,83.64868164
2022-12-06T22:44:21.983Z,83.44116211
2022-12-06T22:45:23.265Z,83.75244141
2022-12-06T22:46:54.314Z,83.95996094
2022-12-06T22:47:54.779Z,83.85620117
2022-12-06T22:48:56.273Z,83.85620117
2022-12-06T22:49:56.866Z,83.85620117
2022-12-06T22:50:57.520Z,83.85620117
2022-12-06T22:51:58.060Z,83.75244141
2022-12-06T22:52:59.669Z,83.79516602
2022-12-06T22:54:00.348Z,83.64868164
2022-12-06T22:55:00.931Z,83.68530273
2022-12-06T22:56:01.580Z,83.79516602
2022-12-06T22:57:02.207Z,84.00268555
2022-12-06T22:58:02.808Z,84.21020508
2022-12-06T22:59:03.484Z,84.41772461
2022-12-06T23:00:04.523Z,84.62524414
2022-12-06T23:01:04.736Z,84.72900391
2022-12-06T23:02:05.409Z,84.83276367
2022-12-06T23:03:06.546Z,84.83276367
2022-12-06T23:04:07.259Z,85.0402832
2022-12-06T23:05:07.860Z,85.0402832
2022-12-06T23:06:08.700Z,85.0402832
2022-12-06T23:07:09.371Z,84.83276367
2022-12-06T23:08:10.593Z,84.72900391
2022-12-06T23:09:11.160Z,84.62524414
2022-12-06T23:10:11.693Z,84.52148438
2022-12-06T23:11:12.335Z,84.62524414
2022-12-06T23:12:12.977Z,84.52148438
2022-12-06T23:13:14.517Z,84.52148438
2022-12-06T23:14:15.169Z,84.52148438
2022-12-06T23:15:15.734Z,84.62524414
2022-12-06T23:16:16.459Z,84.48486328
2022-12-06T23:17:17.057Z,84.38110352
2022-12-06T23:18:17.668Z,84.27124023
2022-12-06T23:19:18.262Z,84.27124023
2022-12-06T23:20:19.585Z,84.27124023
2022-12-06T23:21:20.203Z,84.27124023
2022-12-06T23:22:20.908Z,84.16748047
2022-12-06T23:23:22.216Z,83.85620117
2022-12-06T23:24:53.488Z,83.75244141
2022-12-06T23:25:53.937Z,83.75244141
2022-12-06T23:26:57.959Z,83.75244141
2022-12-06T23:27:55.104Z,83.75244141
2022-12-06T23:28:55.785Z,83.54492188
2022-12-06T23:29:56.571Z,83.64868164
2022-12-06T23:30:58.060Z,83.75244141
2022-12-06T23:31:58.789Z,83.75244141
2022-12-06T23:33:00.233Z,83.64868164
2022-12-06T23:34:00.964Z,83.54492188
2022-12-06T23:35:01.767Z,83.54492188
2022-12-06T23:36:02.366Z,83.75244141
2022-12-06T23:37:03.153Z,83.85620117
2022-12-06T23:38:03.735Z,83.95996094
2022-12-06T23:39:04.375Z,83.75244141
2022-12-06T23:40:05.021Z,83.64868164
2022-12-06T23:41:05.646Z,83.85620117
2022-12-06T23:42:06.296Z,83.95996094
2022-12-06T23:43:07.521Z,84.0637207
2022-12-06T23:44:08.139Z,84.16748047
2022-12-06T23:45:09.005Z,84.16748047
2022-12-06T23:46:09.633Z,83.95996094
2022-12-06T23:47:10.304Z,83.85620117
2022-12-06T23:48:10.964Z,83.64868164
2022-12-06T23:49:12.246Z,83.54492188
2022-12-06T23:50:12.964Z,83.54492188
2022-12-06T23:51:13.522Z,83.54492188
2022-12-06T23:52:14.185Z,83.54492188
2022-12-06T23:53:15.587Z,83.50830078
2022-12-06T23:54:16.206Z,83.50830078
2022-12-06T23:55:16.829Z,83.50830078
2022-12-06T23:56:17.412Z,83.54492188
2022-12-06T23:57:18.049Z,83.75244141
2022-12-06T23:58:18.706Z,83.95996094
2022-12-06T23:59:19.407Z,83.95996094
